createdAt,value
2023-04-28T00:00:32.984Z,8.60
2023-04-28T00:03:01.756Z,8.64
2023-04-28T00:05:31.055Z,8.72
2023-04-28T00:07:59.356Z,8.73
2023-04-28T00:10:28.872Z,8.64
2023-04-28T00:13:03.467Z,8.58
2023-04-28T00:15:31.771Z,8.58
2023-04-28T00:18:00.047Z,8.72
2023-04-28T00:20:28.333Z,8.75
2023-04-28T00:22:59.743Z,8.70
2023-04-28T00:25:29.480Z,8.66
2023-04-28T00:27:57.901Z,8.62
2023-04-28T00:30:28.212Z,8.74
2023-04-28T00:32:58.811Z,8.66
2023-04-28T00:35:27.027Z,8.54
2023-04-28T00:37:55.353Z,8.52
2023-04-28T00:40:23.608Z,8.46
2023-04-28T00:43:14.889Z,8.46
2023-04-28T00:45:43.222Z,8.55
2023-04-28T00:48:11.442Z,8.56
2023-04-28T00:50:39.675Z,8.56
2023-04-28T00:53:07.994Z,8.61
2023-04-28T00:55:36.437Z,8.49
2023-04-28T00:58:04.851Z,8.42
2023-04-28T01:00:34.403Z,8.42
2023-04-28T01:03:02.932Z,8.45
2023-04-28T01:05:31.683Z,8.37
2023-04-28T01:08:00.160Z,8.47
2023-04-28T01:10:28.541Z,8.44
2023-04-28T01:12:56.731Z,8.53
2023-04-28T01:15:27.163Z,8.37
2023-04-28T01:17:57.411Z,8.30
2023-04-28T01:20:25.770Z,8.23
2023-04-28T01:22:53.943Z,8.17
2023-04-28T01:25:23.589Z,8.20
2023-04-28T01:27:52.748Z,8.22
2023-04-28T01:30:21.024Z,8.08
2023-04-28T01:32:49.396Z,7.98
2023-04-28T01:35:17.767Z,7.96
2023-04-28T01:37:46.050Z,7.93
2023-04-28T01:40:14.419Z,8.02
2023-04-28T01:42:44.020Z,8.10
2023-04-28T01:45:12.956Z,8.08
2023-04-28T01:47:41.286Z,8.08
2023-04-28T01:50:09.961Z,8.15
2023-04-28T01:52:44.070Z,8.25
2023-04-28T01:55:12.535Z,8.30
2023-04-28T01:57:40.804Z,8.38
2023-04-28T02:00:11.063Z,8.29
2023-04-28T02:02:39.464Z,8.09
2023-04-28T02:05:08.460Z,8.18
2023-04-28T02:07:36.885Z,8.10
2023-04-28T02:10:05.791Z,8.06
2023-04-28T02:12:34.110Z,7.97
2023-04-28T02:15:02.448Z,7.95
2023-04-28T02:17:32.360Z,7.93
2023-04-28T02:20:01.031Z,7.99
2023-04-28T02:22:29.623Z,8.07
2023-04-28T02:24:58.154Z,8.05
2023-04-28T02:27:26.409Z,7.81
2023-04-28T02:29:54.678Z,7.59
2023-04-28T02:32:23.130Z,7.31
2023-04-28T02:34:55.405Z,7.14
2023-04-28T02:37:23.808Z,7.03
2023-04-28T02:39:52.312Z,7.16
2023-04-28T02:42:20.945Z,7.24
2023-04-28T02:44:49.149Z,7.36
2023-04-28T02:47:17.440Z,7.42
2023-04-28T02:49:45.786Z,7.36
2023-04-28T02:52:15.509Z,7.27
2023-04-28T02:54:43.906Z,7.37
2023-04-28T02:57:12.155Z,7.31
2023-04-28T02:59:40.364Z,7.31
2023-04-28T03:02:09.139Z,7.41
2023-04-28T03:04:37.664Z,7.29
2023-04-28T03:07:06.114Z,7.22
2023-04-28T03:09:36.003Z,7.04
2023-04-28T03:12:04.323Z,7.06
2023-04-28T03:14:52.570Z,6.99
2023-04-28T03:17:21.169Z,7.02
2023-04-28T03:19:49.347Z,7.12
2023-04-28T03:22:17.601Z,7.10
2023-04-28T03:24:47.157Z,7.12
2023-04-28T03:27:15.489Z,7.14
2023-04-28T03:29:43.772Z,7.18
2023-04-28T03:32:12.153Z,7.23
2023-04-28T03:34:40.543Z,7.16
2023-04-28T03:37:08.893Z,7.24
2023-04-28T03:39:37.249Z,7.13
2023-04-28T03:42:07.382Z,7.13
2023-04-28T03:44:36.310Z,7.08
2023-04-28T03:47:04.695Z,7.00
2023-04-28T03:49:33.006Z,6.94
2023-04-28T03:52:01.710Z,7.02
2023-04-28T03:54:30.419Z,6.92
2023-04-28T03:57:12.210Z,6.91
2023-04-28T03:59:40.493Z,7.03
2023-04-28T04:02:08.754Z,7.01
2023-04-28T04:04:37.159Z,6.98
2023-04-28T04:07:05.910Z,7.03
2023-04-28T04:09:34.149Z,7.09
2023-04-28T04:12:02.519Z,7.14
2023-04-28T04:14:32.205Z,7.17
2023-04-28T04:17:00.535Z,7.27
2023-04-28T04:19:28.907Z,7.41
2023-04-28T04:21:57.645Z,7.48
2023-04-28T04:24:25.988Z,7.48
2023-04-28T04:26:54.361Z,7.50
2023-04-28T04:29:22.694Z,7.43
2023-04-28T04:31:52.408Z,7.66
2023-04-28T04:34:20.616Z,7.66
2023-04-28T04:36:49.032Z,7.66
2023-04-28T04:39:17.260Z,7.70
2023-04-28T04:41:45.658Z,7.65
2023-04-28T04:44:14.370Z,7.71
2023-04-28T04:46:42.869Z,7.73
2023-04-28T04:49:12.739Z,7.69
2023-04-28T04:51:40.985Z,7.74
2023-04-28T04:54:09.325Z,7.80
2023-04-28T04:56:37.699Z,7.81
2023-04-28T04:59:06.357Z,7.99
2023-04-28T05:01:34.609Z,8.17
2023-04-28T05:04:03.028Z,8.21
2023-04-28T05:06:34.194Z,8.17
2023-04-28T05:09:03.741Z,8.16
2023-04-28T05:11:32.017Z,8.18
2023-04-28T05:14:00.644Z,8.23
2023-04-28T05:16:29.148Z,8.37
2023-04-28T05:18:57.389Z,8.49
2023-04-28T05:21:26.072Z,8.53
2023-04-28T05:23:56.200Z,8.62
2023-04-28T05:26:24.671Z,8.60
2023-04-28T05:28:53.188Z,8.57
2023-04-28T05:31:21.608Z,8.62
2023-04-28T05:33:53.227Z,8.63
2023-04-28T05:36:36.105Z,8.79
2023-04-28T05:39:06.472Z,8.87
2023-04-28T05:41:37.548Z,9.05
2023-04-28T05:44:07.917Z,9.23
2023-04-28T05:46:37.383Z,9.21
2023-04-28T05:49:05.699Z,9.14
2023-04-28T05:51:36.796Z,9.14
2023-04-28T05:54:07.053Z,9.16
2023-04-28T05:56:35.425Z,9.17
2023-04-28T05:59:05.022Z,9.19
2023-04-28T06:01:33.313Z,9.25
2023-04-28T06:04:01.881Z,9.29
2023-04-28T06:06:30.481Z,9.47
2023-04-28T06:08:58.856Z,9.53
2023-04-28T06:11:28.674Z,9.62
2023-04-28T06:13:56.967Z,9.59
2023-04-28T06:16:28.431Z,9.57
2023-04-28T06:18:56.928Z,9.44
2023-04-28T06:21:25.323Z,9.39
2023-04-28T06:23:53.600Z,9.36
2023-04-28T06:26:21.925Z,9.44
2023-04-28T06:28:52.142Z,9.45
2023-04-28T06:31:20.532Z,9.56
2023-04-28T06:33:49.052Z,9.50
2023-04-28T06:36:18.368Z,9.60
2023-04-28T06:38:47.352Z,9.68
2023-04-28T06:41:15.763Z,9.72
2023-04-28T06:43:44.803Z,9.87
2023-04-28T06:46:14.985Z,9.94
2023-04-28T06:48:43.217Z,9.99
2023-04-28T06:51:11.781Z,9.99
2023-04-28T06:53:40.190Z,9.98
2023-04-28T06:56:11.601Z,9.90
2023-04-28T06:58:40.470Z,9.87
2023-04-28T07:01:08.742Z,9.73
2023-04-28T07:03:39.401Z,9.74
2023-04-28T07:06:08.511Z,9.75
2023-04-28T07:08:37.263Z,9.70
2023-04-28T07:11:06.248Z,9.78
2023-04-28T07:13:34.959Z,10.25
2023-04-28T07:16:03.285Z,10.73
2023-04-28T07:18:31.746Z,11.03
2023-04-28T07:21:03.956Z,11.15
2023-04-28T07:23:33.658Z,11.18
2023-04-28T07:26:01.852Z,11.27
2023-04-28T07:28:30.466Z,11.32
2023-04-28T07:30:59.048Z,11.56
2023-04-28T07:33:27.970Z,11.60
2023-04-28T07:35:58.951Z,11.58
2023-04-28T07:38:29.294Z,11.91
2023-04-28T07:40:57.898Z,12.31
2023-04-28T07:43:26.294Z,12.70
2023-04-28T07:45:55.032Z,13.03
2023-04-28T07:48:23.419Z,13.31
2023-04-28T07:50:52.537Z,13.53
2023-04-28T07:53:21.337Z,13.77
2023-04-28T07:55:51.344Z,13.27
2023-04-28T07:58:19.783Z,13.45
2023-04-28T08:01:08.444Z,13.92
2023-04-28T08:03:37.077Z,14.47
2023-04-28T08:06:06.128Z,14.80
2023-04-28T08:08:36.045Z,14.00
2023-04-28T08:11:05.925Z,14.10
2023-04-28T08:13:36.026Z,14.47
2023-04-28T08:16:04.769Z,14.77
2023-04-28T08:18:33.181Z,14.71
2023-04-28T08:21:01.862Z,14.89
2023-04-28T08:23:31.879Z,14.76
2023-04-28T08:26:00.682Z,15.69
2023-04-28T08:28:30.714Z,15.95
2023-04-28T08:30:59.012Z,17.48
2023-04-28T08:33:27.639Z,19.45
2023-04-28T08:35:57.887Z,20.28
2023-04-28T08:38:26.541Z,20.43
2023-04-28T08:40:54.931Z,20.77
2023-04-28T08:43:24.373Z,19.66
2023-04-28T08:45:54.415Z,18.97
2023-04-28T08:48:23.550Z,18.41
2023-04-28T08:50:55.303Z,18.52
2023-04-28T08:53:25.918Z,18.97
2023-04-28T08:55:54.553Z,19.31
2023-04-28T08:58:23.947Z,20.89
2023-04-28T09:00:54.572Z,21.68
2023-04-28T09:03:23.086Z,21.18
2023-04-28T09:05:53.095Z,21.67
2023-04-28T09:08:21.730Z,20.64
2023-04-28T09:11:07.016Z,22.10
2023-04-28T09:13:37.443Z,22.62
2023-04-28T09:16:08.346Z,22.47
2023-04-28T09:18:36.881Z,22.00
2023-04-28T09:21:06.174Z,22.58
2023-04-28T09:23:35.222Z,24.78
2023-04-28T09:26:18.074Z,24.74
2023-04-28T09:29:12.899Z,23.58
2023-04-28T09:31:43.814Z,23.96
2023-04-28T09:34:15.799Z,24.93
2023-04-28T09:36:45.406Z,25.18
2023-04-28T09:39:14.110Z,22.34
2023-04-28T09:41:55.838Z,21.11
2023-04-28T09:44:33.584Z,20.08
2023-04-28T09:47:20.592Z,18.64
2023-04-28T09:49:56.034Z,17.69
2023-04-28T09:52:25.264Z,17.03
2023-04-28T09:54:54.467Z,16.38
2023-04-28T09:57:23.530Z,16.71
2023-04-28T10:00:00.966Z,16.44
2023-04-28T10:02:42.606Z,16.46
2023-04-28T10:05:24.759Z,16.33
2023-04-28T10:07:55.519Z,16.70
2023-04-28T10:10:25.321Z,17.52
2023-04-28T10:12:53.619Z,18.32
2023-04-28T10:15:22.186Z,19.10
2023-04-28T10:17:58.578Z,19.30
2023-04-28T10:20:28.608Z,17.59
2023-04-28T10:23:03.470Z,17.42
2023-04-28T10:25:34.260Z,17.36
2023-04-28T10:28:05.984Z,17.62
2023-04-28T10:30:35.245Z,17.81
2023-04-28T10:33:22.638Z,18.87
2023-04-28T10:35:53.692Z,19.91
2023-04-28T10:38:22.738Z,19.89
2023-04-28T10:40:51.799Z,19.72
2023-04-28T10:43:37.950Z,18.91
2023-04-28T10:46:07.298Z,18.17
2023-04-28T10:49:05.953Z,18.64
2023-04-28T10:51:38.003Z,18.20
2023-04-28T10:54:11.662Z,18.22
2023-04-28T10:56:50.062Z,17.52
2023-04-28T10:59:28.785Z,16.90
2023-04-28T11:02:17.468Z,16.54
2023-04-28T11:05:00.846Z,16.23
2023-04-28T11:07:32.833Z,15.85
2023-04-28T11:10:01.387Z,15.30
2023-04-28T11:12:29.716Z,15.58
2023-04-28T11:14:58.676Z,15.55
2023-04-28T11:17:39.986Z,15.31
2023-04-28T11:20:13.694Z,15.10
2023-04-28T11:22:43.505Z,15.30
2023-04-28T11:25:11.826Z,15.71
2023-04-28T11:27:40.430Z,15.80
2023-04-28T11:30:22.294Z,15.52
2023-04-28T11:32:51.486Z,15.63
2023-04-28T11:35:20.058Z,15.39
2023-04-28T11:38:04.353Z,14.97
2023-04-28T11:40:34.623Z,14.71
2023-04-28T11:43:03.968Z,14.52
2023-04-28T11:45:33.463Z,14.59
2023-04-28T11:48:22.517Z,14.63
2023-04-28T11:50:51.004Z,14.41
2023-04-28T11:53:22.186Z,14.08
2023-04-28T11:55:51.523Z,14.12
2023-04-28T11:58:22.147Z,14.11
2023-04-28T12:01:05.581Z,14.24
2023-04-28T12:03:34.213Z,14.09
2023-04-28T12:06:03.037Z,14.17
2023-04-28T12:08:33.746Z,14.25
2023-04-28T12:11:12.906Z,14.44
2023-04-28T12:13:41.632Z,14.41
2023-04-28T12:16:10.800Z,14.47
2023-04-28T12:18:39.839Z,14.47
2023-04-28T12:21:21.210Z,14.49
2023-04-28T12:23:51.855Z,14.74
2023-04-28T12:26:26.365Z,14.68
2023-04-28T12:28:54.877Z,14.92
2023-04-28T12:31:23.381Z,15.28
2023-04-28T12:33:51.616Z,15.63
2023-04-28T12:36:19.941Z,15.65
2023-04-28T12:38:48.742Z,15.99
2023-04-28T12:41:19.182Z,16.13
2023-04-28T12:44:12.415Z,16.10
2023-04-28T12:46:42.295Z,15.99
2023-04-28T12:49:11.110Z,15.77
2023-04-28T12:51:39.654Z,15.50
2023-04-28T12:54:08.336Z,15.64
2023-04-28T12:56:37.866Z,15.82
2023-04-28T12:59:06.256Z,16.03
2023-04-28T13:01:34.616Z,16.28
2023-04-28T13:04:02.949Z,16.46
2023-04-28T13:06:31.469Z,16.76
2023-04-28T13:08:59.649Z,16.82
2023-04-28T13:11:28.713Z,16.81
2023-04-28T13:13:58.428Z,17.01
2023-04-28T13:16:28.884Z,17.34
2023-04-28T13:18:57.731Z,17.89
2023-04-28T13:21:26.799Z,18.81
2023-04-28T13:23:56.079Z,19.17
2023-04-28T13:26:24.939Z,19.22
2023-04-28T13:28:53.531Z,20.08
2023-04-28T13:31:23.305Z,20.40
2023-04-28T13:33:54.805Z,20.64
2023-04-28T13:36:23.347Z,20.06
2023-04-28T13:38:52.618Z,19.65
2023-04-28T13:41:21.279Z,19.27
2023-04-28T13:43:53.469Z,18.85
2023-04-28T13:46:27.059Z,18.78
2023-04-28T13:48:55.901Z,19.54
2023-04-28T13:51:28.752Z,20.06
2023-04-28T13:53:59.878Z,20.56
2023-04-28T13:56:28.387Z,20.79
2023-04-28T13:59:00.136Z,21.15
2023-04-28T14:01:30.539Z,21.15
2023-04-28T14:04:00.603Z,20.52
2023-04-28T14:06:34.870Z,19.53
2023-04-28T14:09:04.777Z,19.13
2023-04-28T14:11:33.262Z,18.59
2023-04-28T14:14:04.629Z,18.72
2023-04-28T14:16:37.166Z,18.98
2023-04-28T14:19:05.815Z,19.34
2023-04-28T14:21:35.404Z,19.44
2023-04-28T14:24:04.048Z,19.43
2023-04-28T14:26:36.833Z,18.56
2023-04-28T14:29:14.021Z,18.40
2023-04-28T14:31:44.023Z,18.22
2023-04-28T14:34:13.732Z,17.97
2023-04-28T14:36:43.116Z,17.87
2023-04-28T14:39:21.720Z,17.71
2023-04-28T14:41:50.185Z,17.51
2023-04-28T14:44:19.531Z,17.53
2023-04-28T14:46:52.084Z,17.50
2023-04-28T14:49:20.542Z,17.61
2023-04-28T14:51:52.292Z,18.46
2023-04-28T14:54:21.907Z,18.82
2023-04-28T14:56:53.370Z,19.43
2023-04-28T14:59:22.183Z,19.55
2023-04-28T15:01:55.741Z,19.30
2023-04-28T15:04:29.681Z,19.15
2023-04-28T15:06:59.666Z,19.01
2023-04-28T15:09:29.749Z,19.10
2023-04-28T15:11:58.234Z,18.70
2023-04-28T15:14:26.722Z,18.27
2023-04-28T15:16:58.164Z,18.17
2023-04-28T15:19:27.191Z,17.97
2023-04-28T15:21:57.771Z,18.12
2023-04-28T15:24:27.637Z,18.18
2023-04-28T15:26:56.749Z,18.22
2023-04-28T15:29:25.565Z,17.96
2023-04-28T15:31:54.600Z,17.66
2023-04-28T15:34:24.654Z,17.34
2023-04-28T15:36:53.746Z,17.04
2023-04-28T15:39:24.537Z,16.55
2023-04-28T15:41:53.446Z,16.43
2023-04-28T15:44:24.272Z,15.82
2023-04-28T15:46:55.447Z,15.89
2023-04-28T15:49:25.950Z,16.09
2023-04-28T15:51:55.150Z,16.30
2023-04-28T15:54:23.564Z,16.21
2023-04-28T15:56:51.858Z,16.13
2023-04-28T15:59:20.125Z,16.17
2023-04-28T16:01:48.599Z,16.48
2023-04-28T16:04:16.932Z,16.54
2023-04-28T16:06:47.206Z,16.67
2023-04-28T16:09:15.424Z,16.47
2023-04-28T16:11:43.747Z,16.17
2023-04-28T16:14:11.949Z,15.97
2023-04-28T16:16:40.332Z,15.71
2023-04-28T16:19:09.957Z,15.73
2023-04-28T16:21:39.585Z,15.80
2023-04-28T16:24:09.885Z,16.09
2023-04-28T16:26:38.356Z,15.88
2023-04-28T16:29:06.856Z,16.07
2023-04-28T16:31:35.722Z,16.18
2023-04-28T16:34:04.476Z,16.05
2023-04-28T16:36:33.491Z,16.24
2023-04-28T16:39:02.676Z,16.27
2023-04-28T16:41:32.810Z,16.05
2023-04-28T16:44:01.678Z,16.03
2023-04-28T16:46:30.808Z,15.93
2023-04-28T16:48:59.336Z,16.04
2023-04-28T16:51:29.229Z,16.08
2023-04-28T16:54:04.257Z,16.35
2023-04-28T16:56:38.840Z,16.36
2023-04-28T16:59:07.125Z,16.24
2023-04-28T17:01:35.453Z,15.97
2023-04-28T17:04:06.773Z,15.90
2023-04-28T17:06:35.065Z,15.71
2023-04-28T17:09:03.823Z,15.48
2023-04-28T17:11:32.707Z,15.53
2023-04-28T17:14:02.828Z,15.53
2023-04-28T17:16:32.067Z,15.38
2023-04-28T17:19:00.544Z,15.15
2023-04-28T17:21:32.072Z,15.12
2023-04-28T17:24:01.219Z,14.99
2023-04-28T17:26:30.341Z,14.87
2023-04-28T17:28:59.892Z,14.78
2023-04-28T17:31:31.233Z,14.66
2023-04-28T17:34:01.937Z,14.68
2023-04-28T17:36:35.100Z,14.69
2023-04-28T17:39:04.471Z,14.72
2023-04-28T17:41:32.743Z,14.81
2023-04-28T17:44:01.386Z,14.74
2023-04-28T17:46:32.406Z,14.68
2023-04-28T17:49:02.754Z,14.59
2023-04-28T17:51:32.309Z,14.57
2023-04-28T17:54:01.373Z,14.46
2023-04-28T17:56:30.298Z,14.40
2023-04-28T17:59:00.677Z,14.24
2023-04-28T18:01:34.977Z,14.28
2023-04-28T18:04:07.797Z,14.14
2023-04-28T18:06:40.204Z,14.12
2023-04-28T18:09:12.947Z,14.06
2023-04-28T18:11:44.354Z,14.00
2023-04-28T18:14:15.388Z,13.94
2023-04-28T18:16:45.594Z,13.91
2023-04-28T18:19:17.152Z,13.94
2023-04-28T18:21:47.365Z,13.89
2023-04-28T18:24:15.708Z,13.84
2023-04-28T18:26:44.789Z,13.95
2023-04-28T18:29:14.579Z,13.82
2023-04-28T18:31:45.944Z,13.68
2023-04-28T18:34:17.392Z,13.62
2023-04-28T18:36:46.615Z,13.54
2023-04-28T18:39:15.024Z,13.53
2023-04-28T18:41:43.272Z,13.60
2023-04-28T18:44:16.277Z,13.55
2023-04-28T18:46:48.570Z,13.49
2023-04-28T18:49:18.273Z,13.46
2023-04-28T18:51:46.793Z,13.33
2023-04-28T18:54:17.030Z,13.27
2023-04-28T18:56:47.007Z,13.23
2023-04-28T18:59:16.248Z,13.12
2023-04-28T19:01:44.902Z,13.02
2023-04-28T19:04:13.328Z,13.00
2023-04-28T19:06:44.046Z,12.94
2023-04-28T19:09:12.484Z,12.87
2023-04-28T19:11:41.058Z,12.86
2023-04-28T19:14:10.243Z,12.88
2023-04-28T19:16:38.854Z,12.90
2023-04-28T19:19:09.801Z,12.93
2023-04-28T19:21:46.289Z,12.91
2023-04-28T19:24:15.088Z,12.87
2023-04-28T19:26:44.491Z,12.86
2023-04-28T19:29:16.973Z,12.79
2023-04-28T19:31:46.202Z,12.73
2023-04-28T19:34:16.967Z,12.82
2023-04-28T19:36:52.847Z,12.74
2023-04-28T19:39:22.205Z,12.64
2023-04-28T19:41:53.724Z,12.63
2023-04-28T19:44:28.224Z,12.62
2023-04-28T19:46:57.154Z,12.53
2023-04-28T19:49:26.075Z,12.50
2023-04-28T19:51:56.539Z,12.45
2023-04-28T19:54:24.893Z,12.52
2023-04-28T19:56:54.502Z,12.51
2023-04-28T19:59:25.448Z,12.54
2023-04-28T20:01:55.458Z,12.51
2023-04-28T20:04:26.741Z,12.55
2023-04-28T20:06:57.007Z,12.48
2023-04-28T20:09:31.771Z,12.39
2023-04-28T20:12:07.302Z,12.46
2023-04-28T20:14:38.637Z,12.41
2023-04-28T20:17:10.082Z,12.48
2023-04-28T20:19:44.218Z,12.37
2023-04-28T20:22:15.635Z,12.29
2023-04-28T20:24:47.056Z,12.32
2023-04-28T20:27:15.831Z,12.32
2023-04-28T20:29:44.105Z,12.23
2023-04-28T20:32:12.634Z,12.22
2023-04-28T20:34:51.098Z,12.18
2023-04-28T20:37:29.116Z,12.19
2023-04-28T20:39:59.997Z,12.22
2023-04-28T20:42:36.954Z,12.24
2023-04-28T20:45:11.427Z,12.27
2023-04-28T20:47:40.731Z,12.25
2023-04-28T20:50:11.010Z,12.26
2023-04-28T20:52:42.406Z,12.19
2023-04-28T20:55:16.027Z,12.23
2023-04-28T20:57:48.601Z,12.33
2023-04-28T21:00:28.426Z,12.25
2023-04-28T21:03:01.733Z,12.26
2023-04-28T21:05:39.140Z,12.19
2023-04-28T21:08:10.096Z,12.29
2023-04-28T21:10:40.074Z,12.24
2023-04-28T21:13:09.971Z,12.19
2023-04-28T21:15:39.320Z,12.20
2023-04-28T21:18:10.235Z,12.20
2023-04-28T21:20:39.069Z,12.13
2023-04-28T21:23:10.043Z,12.05
2023-04-28T21:25:38.549Z,11.96
2023-04-28T21:28:07.070Z,11.97
2023-04-28T21:30:35.402Z,11.92
2023-04-28T21:33:06.531Z,11.96
2023-04-28T21:35:37.925Z,11.92
2023-04-28T21:38:06.876Z,11.98
2023-04-28T21:40:38.152Z,11.93
2023-04-28T21:43:15.632Z,11.93
2023-04-28T21:45:46.983Z,11.95
2023-04-28T21:48:16.193Z,12.00
2023-04-28T21:53:57.907Z,11.97
2023-04-28T21:56:27.870Z,11.99
2023-04-28T21:58:56.614Z,12.02
2023-04-28T22:01:25.262Z,11.95
2023-04-28T22:03:55.127Z,11.87
2023-04-28T22:06:24.006Z,11.89
2023-04-28T22:08:52.353Z,11.77
2023-04-28T22:11:20.793Z,11.67
2023-04-28T22:13:50.493Z,11.57
2023-04-28T22:16:19.385Z,11.46
2023-04-28T22:18:48.141Z,11.43
2023-04-28T22:21:16.823Z,11.42
2023-04-28T22:23:45.235Z,11.45
2023-04-28T22:26:14.318Z,11.44
2023-04-28T22:28:43.197Z,11.43
2023-04-28T22:31:13.334Z,11.29
2023-04-28T22:33:41.787Z,11.35
2023-04-28T22:36:10.917Z,11.30
2023-04-28T22:38:39.964Z,11.24
2023-04-28T22:41:08.756Z,11.25
2023-04-28T22:43:37.614Z,11.23
2023-04-28T22:46:06.077Z,11.17
2023-04-28T22:48:36.194Z,11.13
2023-04-28T22:51:04.928Z,11.05
2023-04-28T22:53:33.642Z,11.00
2023-04-28T22:56:03.091Z,10.95
2023-04-28T22:58:32.233Z,10.91
2023-04-28T23:01:01.511Z,10.78
2023-04-28T23:03:31.152Z,10.74
2023-04-28T23:06:03.772Z,10.76
2023-04-28T23:08:35.199Z,10.65
2023-04-28T23:11:06.682Z,10.70
2023-04-28T23:13:35.772Z,10.65
2023-04-28T23:16:04.779Z,10.60
2023-04-28T23:18:34.229Z,10.60
2023-04-28T23:21:04.828Z,10.62
2023-04-28T23:23:41.027Z,10.60
2023-04-28T23:26:09.581Z,10.66
2023-04-28T23:28:38.205Z,10.59
2023-04-28T23:31:06.643Z,10.61
2023-04-28T23:33:35.697Z,10.53
2023-04-28T23:36:05.868Z,10.55
2023-04-28T23:38:36.351Z,10.48
2023-04-28T23:41:06.947Z,10.46
2023-04-28T23:43:37.762Z,10.43
2023-04-28T23:46:07.017Z,10.46
2023-04-28T23:48:36.086Z,10.48
2023-04-28T23:51:05.874Z,10.37
2023-04-28T23:53:34.334Z,10.33
2023-04-28T23:56:02.912Z,10.42
2023-04-28T23:58:32.881Z,10.42
